Steen, Indiana
Current Conditions -  °F | °C
As of 8:35 PM on Saturday 25 Oct 2014 (Local Time) from KDCY Reporting Station
Clear Clear  
Wind Chill: 65°   Ceiling: Unl
Heat Index: 65°   Visibility: 10mi
Dew Point: 53°   Wind: 9mph
Humidity: 64%   Direction: 260°W
Pressure: 29.97"   Gusts: NA
Location:  38.6719°N, 87.3001°W
Report Text: KDCY 260135Z AUTO 26008KT 10SM CLR 19/12 A2997 RMK AO2 T01850115
Loading
Personal Weather Stations






























Interactive Weather Map
Tropical Storm Tracking
New forecast layout! Learn more

10-Day Weather Forecast

Advertisements
Track Severe Weather on mobile